sensor_id;sensor_type;location;lat;lon;timestamp;P1;durP1;ratioP1;P2;durP2;ratioP2
29906;SDS011;16776;50.958;10.994;2023-08-21T00:00:16;5.80;;;5.20;;
29906;SDS011;16776;50.958;10.994;2023-08-21T00:02:43;6.35;;;5.63;;
29906;SDS011;16776;50.958;10.994;2023-08-21T00:05:09;5.65;;;5.15;;
29906;SDS011;16776;50.958;10.994;2023-08-21T00:07:36;6.75;;;5.70;;
29906;SDS011;16776;50.958;10.994;2023-08-21T00:10:03;5.45;;;4.93;;
29906;SDS011;16776;50.958;10.994;2023-08-21T00:12:30;5.80;;;5.30;;
29906;SDS011;16776;50.958;10.994;2023-08-21T00:14:57;7.05;;;6.07;;
29906;SDS011;16776;50.958;10.994;2023-08-21T00:17:25;6.15;;;5.55;;
29906;SDS011;16776;50.958;10.994;2023-08-21T00:19:51;5.78;;;5.28;;
29906;SDS011;16776;50.958;10.994;2023-08-21T00:22:18;5.88;;;5.28;;
29906;SDS011;16776;50.958;10.994;2023-08-21T00:24:44;6.20;;;5.13;;
29906;SDS011;16776;50.958;10.994;2023-08-21T00:27:11;8.07;;;5.80;;
29906;SDS011;16776;50.958;10.994;2023-08-21T00:29:37;6.50;;;5.80;;
29906;SDS011;16776;50.958;10.994;2023-08-21T00:32:04;7.03;;;6.32;;
29906;SDS011;16776;50.958;10.994;2023-08-21T00:34:32;6.93;;;6.20;;
29906;SDS011;16776;50.958;10.994;2023-08-21T00:36:59;6.28;;;5.68;;
29906;SDS011;16776;50.958;10.994;2023-08-21T00:39:26;7.32;;;5.30;;
29906;SDS011;16776;50.958;10.994;2023-08-21T00:41:52;6.93;;;6.10;;
29906;SDS011;16776;50.958;10.994;2023-08-21T00:44:19;6.28;;;5.70;;
29906;SDS011;16776;50.958;10.994;2023-08-21T00:46:45;5.90;;;5.30;;
29906;SDS011;16776;50.958;10.994;2023-08-21T00:49:12;6.07;;;5.47;;
29906;SDS011;16776;50.958;10.994;2023-08-21T00:51:40;7.60;;;5.72;;
29906;SDS011;16776;50.958;10.994;2023-08-21T00:54:06;5.45;;;4.90;;
29906;SDS011;16776;50.958;10.994;2023-08-21T00:56:33;5.88;;;5.32;;
29906;SDS011;16776;50.958;10.994;2023-08-21T00:59:00;7.18;;;5.82;;
29906;SDS011;16776;50.958;10.994;2023-08-21T01:01:27;6.40;;;5.20;;
29906;SDS011;16776;50.958;10.994;2023-08-21T01:03:54;6.55;;;5.40;;
29906;SDS011;16776;50.958;10.994;2023-08-21T01:06:21;5.65;;;4.90;;
29906;SDS011;16776;50.958;10.994;2023-08-21T01:08:52;5.55;;;5.05;;
29906;SDS011;16776;50.958;10.994;2023-08-21T01:11:25;5.93;;;5.28;;
29906;SDS011;16776;50.958;10.994;2023-08-21T01:13:59;6.20;;;5.57;;
29906;SDS011;16776;50.958;10.994;2023-08-21T01:16:33;5.95;;;5.35;;
29906;SDS011;16776;50.958;10.994;2023-08-21T01:19:02;7.10;;;6.03;;
29906;SDS011;16776;50.958;10.994;2023-08-21T01:21:34;7.68;;;6.57;;
29906;SDS011;16776;50.958;10.994;2023-08-21T01:24:02;7.57;;;6.00;;
29906;SDS011;16776;50.958;10.994;2023-08-21T01:26:28;6.60;;;5.93;;
29906;SDS011;16776;50.958;10.994;2023-08-21T01:28:55;7.32;;;6.25;;
29906;SDS011;16776;50.958;10.994;2023-08-21T01:31:24;6.20;;;5.60;;
29906;SDS011;16776;50.958;10.994;2023-08-21T01:33:54;7.82;;;5.93;;
29906;SDS011;16776;50.958;10.994;2023-08-21T01:36:23;6.13;;;5.53;;
29906;SDS011;16776;50.958;10.994;2023-08-21T01:38:51;7.10;;;6.15;;
29906;SDS011;16776;50.958;10.994;2023-08-21T01:41:20;6.78;;;6.13;;
29906;SDS011;16776;50.958;10.994;2023-08-21T01:43:49;6.47;;;5.72;;
29906;SDS011;16776;50.958;10.994;2023-08-21T01:46:16;8.05;;;6.60;;
29906;SDS011;16776;50.958;10.994;2023-08-21T01:48:42;7.60;;;6.57;;
29906;SDS011;16776;50.958;10.994;2023-08-21T01:51:09;7.18;;;6.20;;
29906;SDS011;16776;50.958;10.994;2023-08-21T01:53:36;7.32;;;6.55;;
29906;SDS011;16776;50.958;10.994;2023-08-21T01:56:02;7.10;;;6.38;;
29906;SDS011;16776;50.958;10.994;2023-08-21T01:58:30;7.05;;;6.32;;
29906;SDS011;16776;50.958;10.994;2023-08-21T02:00:57;8.52;;;6.13;;
29906;SDS011;16776;50.958;10.994;2023-08-21T02:03:24;6.30;;;5.65;;
29906;SDS011;16776;50.958;10.994;2023-08-21T02:05:54;6.15;;;5.15;;
29906;SDS011;16776;50.958;10.994;2023-08-21T02:08:23;6.63;;;5.90;;
29906;SDS011;16776;50.958;10.994;2023-08-21T02:10:51;6.68;;;5.45;;
29906;SDS011;16776;50.958;10.994;2023-08-21T02:13:18;9.95;;;5.68;;
29906;SDS011;16776;50.958;10.994;2023-08-21T02:15:46;6.55;;;5.95;;
29906;SDS011;16776;50.958;10.994;2023-08-21T02:18:13;6.20;;;5.60;;
29906;SDS011;16776;50.958;10.994;2023-08-21T02:20:39;6.85;;;6.10;;
29906;SDS011;16776;50.958;10.994;2023-08-21T02:23:06;6.35;;;5.72;;
29906;SDS011;16776;50.958;10.994;2023-08-21T02:25:33;6.80;;;5.85;;
29906;SDS011;16776;50.958;10.994;2023-08-21T02:27:59;6.90;;;6.10;;
29906;SDS011;16776;50.958;10.994;2023-08-21T02:30:27;6.88;;;6.20;;
29906;SDS011;16776;50.958;10.994;2023-08-21T02:32:55;6.40;;;5.80;;
29906;SDS011;16776;50.958;10.994;2023-08-21T02:35:22;6.05;;;5.47;;
29906;SDS011;16776;50.958;10.994;2023-08-21T02:37:48;6.95;;;6.18;;
29906;SDS011;16776;50.958;10.994;2023-08-21T02:40:15;8.18;;;5.45;;
29906;SDS011;16776;50.958;10.994;2023-08-21T02:42:41;7.45;;;6.68;;
29906;SDS011;16776;50.958;10.994;2023-08-21T02:45:08;5.90;;;5.30;;
29906;SDS011;16776;50.958;10.994;2023-08-21T02:47:36;7.55;;;6.47;;
29906;SDS011;16776;50.958;10.994;2023-08-21T02:50:05;6.25;;;5.63;;
29906;SDS011;16776;50.958;10.994;2023-08-21T02:52:33;6.88;;;6.10;;
29906;SDS011;16776;50.958;10.994;2023-08-21T02:55:00;5.97;;;5.38;;
29906;SDS011;16776;50.958;10.994;2023-08-21T02:57:27;7.13;;;5.93;;
29906;SDS011;16776;50.958;10.994;2023-08-21T02:59:54;7.60;;;5.60;;
29906;SDS011;16776;50.958;10.994;2023-08-21T03:02:21;6.57;;;5.88;;
29906;SDS011;16776;50.958;10.994;2023-08-21T03:04:48;7.00;;;6.30;;
29906;SDS011;16776;50.958;10.994;2023-08-21T03:07:17;7.60;;;6.13;;
29906;SDS011;16776;50.958;10.994;2023-08-21T03:09:45;6.13;;;5.53;;
29906;SDS011;16776;50.958;10.994;2023-08-21T03:12:12;6.13;;;5.57;;
29906;SDS011;16776;50.958;10.994;2023-08-21T03:14:38;6.30;;;5.70;;
29906;SDS011;16776;50.958;10.994;2023-08-21T03:17:05;5.85;;;5.20;;
29906;SDS011;16776;50.958;10.994;2023-08-21T03:19:32;6.15;;;5.55;;
29906;SDS011;16776;50.958;10.994;2023-08-21T03:21:58;7.28;;;5.93;;
29906;SDS011;16776;50.958;10.994;2023-08-21T03:24:26;7.25;;;6.43;;
29906;SDS011;16776;50.958;10.994;2023-08-21T03:26:53;6.47;;;5.55;;
29906;SDS011;16776;50.958;10.994;2023-08-21T03:29:19;6.97;;;5.55;;
29906;SDS011;16776;50.958;10.994;2023-08-21T03:31:46;6.13;;;5.32;;
29906;SDS011;16776;50.958;10.994;2023-08-21T03:34:14;6.55;;;5.85;;
29906;SDS011;16776;50.958;10.994;2023-08-21T03:36:40;6.05;;;5.38;;
29906;SDS011;16776;50.958;10.994;2023-08-21T03:39:07;6.38;;;5.78;;
29906;SDS011;16776;50.958;10.994;2023-08-21T03:41:35;6.00;;;5.18;;
29906;SDS011;16776;50.958;10.994;2023-08-21T03:44:01;5.25;;;4.75;;
29906;SDS011;16776;50.958;10.994;2023-08-21T03:46:28;5.45;;;4.95;;
29906;SDS011;16776;50.958;10.994;2023-08-21T03:48:54;5.57;;;4.97;;
29906;SDS011;16776;50.958;10.994;2023-08-21T03:51:21;6.03;;;5.43;;
29906;SDS011;16776;50.958;10.994;2023-08-21T03:53:48;5.25;;;4.75;;
29906;SDS011;16776;50.958;10.994;2023-08-21T03:56:15;5.80;;;5.18;;
29906;SDS011;16776;50.958;10.994;2023-08-21T03:58:43;7.88;;;5.63;;
29906;SDS011;16776;50.958;10.994;2023-08-21T04:01:09;5.22;;;4.72;;
29906;SDS011;16776;50.958;10.994;2023-08-21T04:03:36;5.25;;;4.70;;
29906;SDS011;16776;50.958;10.994;2023-08-21T04:06:02;5.28;;;4.75;;
29906;SDS011;16776;50.958;10.994;2023-08-21T04:08:29;5.63;;;5.00;;
29906;SDS011;16776;50.958;10.994;2023-08-21T04:10:56;5.88;;;4.97;;
29906;SDS011;16776;50.958;10.994;2023-08-21T04:13:24;4.70;;;4.20;;
29906;SDS011;16776;50.958;10.994;2023-08-21T04:15:53;4.90;;;4.43;;
29906;SDS011;16776;50.958;10.994;2023-08-21T04:18:21;5.85;;;5.25;;
29906;SDS011;16776;50.958;10.994;2023-08-21T04:20:47;5.85;;;5.22;;
29906;SDS011;16776;50.958;10.994;2023-08-21T04:23:14;6.30;;;5.53;;
29906;SDS011;16776;50.958;10.994;2023-08-21T04:25:40;7.55;;;5.90;;
29906;SDS011;16776;50.958;10.994;2023-08-21T04:28:08;6.60;;;5.50;;
29906;SDS011;16776;50.958;10.994;2023-08-21T04:30:34;7.45;;;6.05;;
29906;SDS011;16776;50.958;10.994;2023-08-21T04:33:02;6.80;;;6.13;;
29906;SDS011;16776;50.958;10.994;2023-08-21T04:35:35;7.25;;;6.40;;
29906;SDS011;16776;50.958;10.994;2023-08-21T04:38:02;5.88;;;5.25;;
29906;SDS011;16776;50.958;10.994;2023-08-21T04:40:29;5.53;;;5.03;;
29906;SDS011;16776;50.958;10.994;2023-08-21T04:42:55;6.55;;;5.57;;
29906;SDS011;16776;50.958;10.994;2023-08-21T04:45:22;6.50;;;5.57;;
29906;SDS011;16776;50.958;10.994;2023-08-21T04:47:49;7.43;;;5.90;;
29906;SDS011;16776;50.958;10.994;2023-08-21T04:50:17;7.40;;;5.68;;
29906;SDS011;16776;50.958;10.994;2023-08-21T04:52:43;10.43;;;5.22;;
29906;SDS011;16776;50.958;10.994;2023-08-21T04:55:10;6.82;;;5.07;;
29906;SDS011;16776;50.958;10.994;2023-08-21T04:57:37;7.07;;;5.45;;
29906;SDS011;16776;50.958;10.994;2023-08-21T05:00:03;6.53;;;5.57;;
29906;SDS011;16776;50.958;10.994;2023-08-21T05:02:31;6.85;;;5.63;;
29906;SDS011;16776;50.958;10.994;2023-08-21T05:04:57;5.63;;;5.07;;
29906;SDS011;16776;50.958;10.994;2023-08-21T05:07:25;5.45;;;4.90;;
29906;SDS011;16776;50.958;10.994;2023-08-21T05:09:52;5.35;;;4.85;;
29906;SDS011;16776;50.958;10.994;2023-08-21T05:12:19;5.57;;;4.97;;
29906;SDS011;16776;50.958;10.994;2023-08-21T05:14:46;5.60;;;5.07;;
29906;SDS011;16776;50.958;10.994;2023-08-21T05:17:12;5.20;;;4.43;;
29906;SDS011;16776;50.958;10.994;2023-08-21T05:19:39;4.45;;;4.00;;
29906;SDS011;16776;50.958;10.994;2023-08-21T05:22:05;3.95;;;3.58;;
29906;SDS011;16776;50.958;10.994;2023-08-21T05:24:33;4.70;;;4.22;;
29906;SDS011;16776;50.958;10.994;2023-08-21T05:27:00;4.68;;;4.10;;
29906;SDS011;16776;50.958;10.994;2023-08-21T05:29:27;4.53;;;4.13;;
29906;SDS011;16776;50.958;10.994;2023-08-21T05:31:53;3.90;;;3.60;;
29906;SDS011;16776;50.958;10.994;2023-08-21T05:34:20;4.65;;;3.50;;
29906;SDS011;16776;50.958;10.994;2023-08-21T05:36:46;3.28;;;3.08;;
29906;SDS011;16776;50.958;10.994;2023-08-21T05:39:13;2.95;;;2.67;;
29906;SDS011;16776;50.958;10.994;2023-08-21T05:41:41;3.90;;;3.60;;
29906;SDS011;16776;50.958;10.994;2023-08-21T05:44:07;4.50;;;4.10;;
29906;SDS011;16776;50.958;10.994;2023-08-21T05:46:34;3.67;;;3.38;;
29906;SDS011;16776;50.958;10.994;2023-08-21T05:49:01;3.50;;;3.20;;
29906;SDS011;16776;50.958;10.994;2023-08-21T05:51:27;4.55;;;4.07;;
29906;SDS011;16776;50.958;10.994;2023-08-21T05:53:54;5.50;;;4.30;;
29906;SDS011;16776;50.958;10.994;2023-08-21T05:56:21;4.28;;;3.88;;
29906;SDS011;16776;50.958;10.994;2023-08-21T05:58:50;4.60;;;4.20;;
29906;SDS011;16776;50.958;10.994;2023-08-21T06:01:16;4.18;;;3.78;;
29906;SDS011;16776;50.958;10.994;2023-08-21T06:03:43;4.45;;;4.05;;
29906;SDS011;16776;50.958;10.994;2023-08-21T06:06:09;4.40;;;4.00;;
29906;SDS011;16776;50.958;10.994;2023-08-21T06:08:36;5.60;;;3.75;;
29906;SDS011;16776;50.958;10.994;2023-08-21T06:11:03;5.07;;;4.57;;
29906;SDS011;16776;50.958;10.994;2023-08-21T06:13:30;4.80;;;4.03;;
29906;SDS011;16776;50.958;10.994;2023-08-21T06:15:58;4.50;;;4.07;;
29906;SDS011;16776;50.958;10.994;2023-08-21T06:18:24;4.85;;;4.45;;
29906;SDS011;16776;50.958;10.994;2023-08-21T06:20:51;7.25;;;4.82;;
29906;SDS011;16776;50.958;10.994;2023-08-21T06:23:18;7.15;;;4.82;;
29906;SDS011;16776;50.958;10.994;2023-08-21T06:25:47;4.88;;;4.43;;
29906;SDS011;16776;50.958;10.994;2023-08-21T06:28:14;6.05;;;5.45;;
29906;SDS011;16776;50.958;10.994;2023-08-21T06:30:40;5.78;;;4.45;;
29906;SDS011;16776;50.958;10.994;2023-08-21T06:33:08;4.68;;;4.22;;
29906;SDS011;16776;50.958;10.994;2023-08-21T06:35:35;4.28;;;3.78;;
29906;SDS011;16776;50.958;10.994;2023-08-21T06:38:02;4.43;;;4.03;;
29906;SDS011;16776;50.958;10.994;2023-08-21T06:40:29;5.97;;;4.32;;
29906;SDS011;16776;50.958;10.994;2023-08-21T06:42:57;6.47;;;4.65;;
29906;SDS011;16776;50.958;10.994;2023-08-21T06:45:24;5.18;;;4.65;;
29906;SDS011;16776;50.958;10.994;2023-08-21T06:47:53;6.22;;;5.15;;
29906;SDS011;16776;50.958;10.994;2023-08-21T06:50:21;5.57;;;4.82;;
29906;SDS011;16776;50.958;10.994;2023-08-21T06:52:48;4.45;;;4.05;;
29906;SDS011;16776;50.958;10.994;2023-08-21T06:55:14;6.35;;;3.97;;
29906;SDS011;16776;50.958;10.994;2023-08-21T06:57:41;4.28;;;3.85;;
29906;SDS011;16776;50.958;10.994;2023-08-21T07:00:08;4.40;;;3.45;;
29906;SDS011;16776;50.958;10.994;2023-08-21T07:02:35;3.47;;;3.17;;
29906;SDS011;16776;50.958;10.994;2023-08-21T07:05:02;4.13;;;3.72;;
29906;SDS011;16776;50.958;10.994;2023-08-21T07:07:30;5.25;;;4.75;;
29906;SDS011;16776;50.958;10.994;2023-08-21T07:09:57;5.03;;;4.28;;
29906;SDS011;16776;50.958;10.994;2023-08-21T07:12:23;4.43;;;4.03;;
29906;SDS011;16776;50.958;10.994;2023-08-21T07:14:50;3.10;;;2.83;;
29906;SDS011;16776;50.958;10.994;2023-08-21T07:17:16;3.60;;;3.30;;
29906;SDS011;16776;50.958;10.994;2023-08-21T07:19:43;2.97;;;2.78;;
29906;SDS011;16776;50.958;10.994;2023-08-21T07:22:09;3.15;;;2.88;;
29906;SDS011;16776;50.958;10.994;2023-08-21T07:24:37;3.40;;;3.00;;
29906;SDS011;16776;50.958;10.994;2023-08-21T07:27:04;3.63;;;3.10;;
29906;SDS011;16776;50.958;10.994;2023-08-21T07:29:31;3.55;;;3.20;;
29906;SDS011;16776;50.958;10.994;2023-08-21T07:31:57;3.85;;;3.55;;
29906;SDS011;16776;50.958;10.994;2023-08-21T07:34:24;3.22;;;2.92;;
29906;SDS011;16776;50.958;10.994;2023-08-21T07:36:50;3.10;;;2.70;;
29906;SDS011;16776;50.958;10.994;2023-08-21T07:39:17;3.03;;;2.75;;
29906;SDS011;16776;50.958;10.994;2023-08-21T07:41:45;3.03;;;2.75;;
29906;SDS011;16776;50.958;10.994;2023-08-21T07:44:11;3.65;;;3.33;;
29906;SDS011;16776;50.958;10.994;2023-08-21T07:46:38;3.47;;;3.17;;
29906;SDS011;16776;50.958;10.994;2023-08-21T07:49:04;3.67;;;3.35;;
29906;SDS011;16776;50.958;10.994;2023-08-21T07:51:31;3.28;;;3.00;;
29906;SDS011;16776;50.958;10.994;2023-08-21T07:53:57;2.78;;;2.58;;
29906;SDS011;16776;50.958;10.994;2023-08-21T07:56:24;3.80;;;2.83;;
29906;SDS011;16776;50.958;10.994;2023-08-21T07:58:52;3.40;;;2.80;;
29906;SDS011;16776;50.958;10.994;2023-08-21T08:01:18;3.05;;;2.75;;
29906;SDS011;16776;50.958;10.994;2023-08-21T08:03:46;3.00;;;2.80;;
29906;SDS011;16776;50.958;10.994;2023-08-21T08:06:14;3.10;;;2.88;;
29906;SDS011;16776;50.958;10.994;2023-08-21T08:08:40;2.70;;;2.50;;
29906;SDS011;16776;50.958;10.994;2023-08-21T08:11:07;2.47;;;2.28;;
29906;SDS011;16776;50.958;10.994;2023-08-21T08:13:34;2.65;;;2.45;;
29906;SDS011;16776;50.958;10.994;2023-08-21T08:16:01;2.55;;;2.35;;
29906;SDS011;16776;50.958;10.994;2023-08-21T08:18:28;2.75;;;2.55;;
29906;SDS011;16776;50.958;10.994;2023-08-21T08:20:55;3.88;;;3.00;;
29906;SDS011;16776;50.958;10.994;2023-08-21T08:23:21;3.95;;;2.72;;
29906;SDS011;16776;50.958;10.994;2023-08-21T08:25:48;3.72;;;3.42;;
29906;SDS011;16776;50.958;10.994;2023-08-21T08:28:15;3.70;;;2.78;;
29906;SDS011;16776;50.958;10.994;2023-08-21T08:30:41;2.83;;;2.53;;
29906;SDS011;16776;50.958;10.994;2023-08-21T08:33:09;3.03;;;2.75;;
29906;SDS011;16776;50.958;10.994;2023-08-21T08:35:36;3.00;;;2.80;;
29906;SDS011;16776;50.958;10.994;2023-08-21T08:38:02;2.97;;;2.78;;
29906;SDS011;16776;50.958;10.994;2023-08-21T08:40:29;2.92;;;2.65;;
29906;SDS011;16776;50.958;10.994;2023-08-21T08:42:57;3.35;;;2.67;;
29906;SDS011;16776;50.958;10.994;2023-08-21T08:45:27;3.40;;;2.70;;
29906;SDS011;16776;50.958;10.994;2023-08-21T08:47:56;5.15;;;2.78;;
29906;SDS011;16776;50.958;10.994;2023-08-21T08:50:26;2.97;;;2.72;;
29906;SDS011;16776;50.958;10.994;2023-08-21T08:52:55;3.00;;;2.75;;
29906;SDS011;16776;50.958;10.994;2023-08-21T08:55:23;3.78;;;2.95;;
29906;SDS011;16776;50.958;10.994;2023-08-21T08:57:50;2.67;;;2.47;;
29906;SDS011;16776;50.958;10.994;2023-08-21T09:00:17;2.88;;;2.67;;
29906;SDS011;16776;50.958;10.994;2023-08-21T09:02:44;3.08;;;2.88;;
29906;SDS011;16776;50.958;10.994;2023-08-21T09:05:11;2.90;;;2.70;;
29906;SDS011;16776;50.958;10.994;2023-08-21T09:07:40;2.45;;;2.25;;
29906;SDS011;16776;50.958;10.994;2023-08-21T09:10:12;2.90;;;2.70;;
29906;SDS011;16776;50.958;10.994;2023-08-21T09:12:40;2.92;;;2.72;;
29906;SDS011;16776;50.958;10.994;2023-08-21T09:15:07;3.25;;;2.67;;
29906;SDS011;16776;50.958;10.994;2023-08-21T09:17:34;3.45;;;3.15;;
29906;SDS011;16776;50.958;10.994;2023-08-21T09:20:03;2.85;;;2.65;;
29906;SDS011;16776;50.958;10.994;2023-08-21T09:22:30;3.40;;;2.75;;
29906;SDS011;16776;50.958;10.994;2023-08-21T09:25:01;3.28;;;3.08;;
29906;SDS011;16776;50.958;10.994;2023-08-21T09:27:31;3.17;;;2.92;;
29906;SDS011;16776;50.958;10.994;2023-08-21T09:29:58;3.50;;;3.13;;
29906;SDS011;16776;50.958;10.994;2023-08-21T09:32:25;3.05;;;2.80;;
29906;SDS011;16776;50.958;10.994;2023-08-21T09:34:52;7.30;;;3.33;;
29906;SDS011;16776;50.958;10.994;2023-08-21T09:37:18;3.28;;;2.72;;
29906;SDS011;16776;50.958;10.994;2023-08-21T09:39:45;3.45;;;3.15;;
29906;SDS011;16776;50.958;10.994;2023-08-21T09:42:13;5.05;;;3.63;;
29906;SDS011;16776;50.958;10.994;2023-08-21T09:44:44;3.15;;;2.90;;
29906;SDS011;16776;50.958;10.994;2023-08-21T09:47:10;3.40;;;3.20;;
29906;SDS011;16776;50.958;10.994;2023-08-21T09:49:38;3.67;;;3.35;;
29906;SDS011;16776;50.958;10.994;2023-08-21T09:52:05;3.15;;;2.88;;
29906;SDS011;16776;50.958;10.994;2023-08-21T09:54:35;3.17;;;2.97;;
29906;SDS011;16776;50.958;10.994;2023-08-21T09:57:02;3.83;;;3.53;;
29906;SDS011;16776;50.958;10.994;2023-08-21T09:59:31;3.20;;;3.00;;
29906;SDS011;16776;50.958;10.994;2023-08-21T10:01:58;4.55;;;3.95;;
29906;SDS011;16776;50.958;10.994;2023-08-21T10:04:27;4.03;;;3.72;;
29906;SDS011;16776;50.958;10.994;2023-08-21T10:06:55;3.17;;;2.97;;
29906;SDS011;16776;50.958;10.994;2023-08-21T10:09:23;3.38;;;2.92;;
29906;SDS011;16776;50.958;10.994;2023-08-21T10:11:51;3.63;;;3.15;;
29906;SDS011;16776;50.958;10.994;2023-08-21T10:14:18;3.65;;;3.30;;
29906;SDS011;16776;50.958;10.994;2023-08-21T10:16:48;3.33;;;3.00;;
29906;SDS011;16776;50.958;10.994;2023-08-21T10:19:16;2.95;;;2.65;;
29906;SDS011;16776;50.958;10.994;2023-08-21T10:21:45;5.15;;;2.85;;
29906;SDS011;16776;50.958;10.994;2023-08-21T10:24:13;3.85;;;3.50;;
29906;SDS011;16776;50.958;10.994;2023-08-21T10:26:52;2.78;;;2.58;;
29906;SDS011;16776;50.958;10.994;2023-08-21T10:29:18;3.33;;;3.13;;
29906;SDS011;16776;50.958;10.994;2023-08-21T10:31:45;3.15;;;2.95;;
29906;SDS011;16776;50.958;10.994;2023-08-21T10:34:13;2.95;;;2.75;;
29906;SDS011;16776;50.958;10.994;2023-08-21T10:37:02;4.53;;;4.13;;
29906;SDS011;16776;50.958;10.994;2023-08-21T10:39:35;3.50;;;3.30;;
29906;SDS011;16776;50.958;10.994;2023-08-21T10:42:04;3.38;;;3.08;;
29906;SDS011;16776;50.958;10.994;2023-08-21T10:47:21;3.28;;;2.97;;
29906;SDS011;16776;50.958;10.994;2023-08-21T10:49:51;3.10;;;2.90;;
29906;SDS011;16776;50.958;10.994;2023-08-21T10:52:22;3.17;;;2.97;;
29906;SDS011;16776;50.958;10.994;2023-08-21T10:54:50;3.37;;;3.07;;
29906;SDS011;16776;50.958;10.994;2023-08-21T10:57:17;3.22;;;2.97;;
29906;SDS011;16776;50.958;10.994;2023-08-21T10:59:51;2.97;;;2.78;;
29906;SDS011;16776;50.958;10.994;2023-08-21T11:02:19;3.47;;;2.70;;
29906;SDS011;16776;50.958;10.994;2023-08-21T11:04:46;2.75;;;2.55;;
29906;SDS011;16776;50.958;10.994;2023-08-21T11:07:13;3.20;;;3.00;;
29906;SDS011;16776;50.958;10.994;2023-08-21T11:09:40;3.22;;;2.80;;
29906;SDS011;16776;50.958;10.994;2023-08-21T11:12:07;3.47;;;3.17;;
29906;SDS011;16776;50.958;10.994;2023-08-21T11:14:35;3.28;;;2.72;;
29906;SDS011;16776;50.958;10.994;2023-08-21T11:17:03;3.33;;;3.03;;
29906;SDS011;16776;50.958;10.994;2023-08-21T11:19:30;3.08;;;2.88;;
29906;SDS011;16776;50.958;10.994;2023-08-21T11:21:57;3.00;;;2.80;;
29906;SDS011;16776;50.958;10.994;2023-08-21T11:24:30;2.53;;;2.33;;
29906;SDS011;16776;50.958;10.994;2023-08-21T11:26:57;3.40;;;3.20;;
29906;SDS011;16776;50.958;10.994;2023-08-21T11:29:24;2.90;;;2.70;;
29906;SDS011;16776;50.958;10.994;2023-08-21T11:31:52;2.70;;;2.50;;
29906;SDS011;16776;50.958;10.994;2023-08-21T11:34:18;2.40;;;2.30;;
29906;SDS011;16776;50.958;10.994;2023-08-21T11:36:47;2.28;;;2.17;;
29906;SDS011;16776;50.958;10.994;2023-08-21T11:39:14;2.58;;;2.38;;
29906;SDS011;16776;50.958;10.994;2023-08-21T11:41:54;2.30;;;2.10;;
29906;SDS011;16776;50.958;10.994;2023-08-21T11:44:21;2.42;;;2.30;;
29906;SDS011;16776;50.958;10.994;2023-08-21T11:46:50;2.05;;;1.95;;
29906;SDS011;16776;50.958;10.994;2023-08-21T11:49:17;2.25;;;2.13;;
29906;SDS011;16776;50.958;10.994;2023-08-21T11:51:44;2.60;;;2.42;;
29906;SDS011;16776;50.958;10.994;2023-08-21T11:54:11;2.63;;;2.42;;
29906;SDS011;16776;50.958;10.994;2023-08-21T11:56:38;2.53;;;2.33;;
29906;SDS011;16776;50.958;10.994;2023-08-21T11:59:07;2.35;;;2.25;;
29906;SDS011;16776;50.958;10.994;2023-08-21T12:01:43;2.97;;;2.65;;
29906;SDS011;16776;50.958;10.994;2023-08-21T12:04:15;2.58;;;2.38;;
29906;SDS011;16776;50.958;10.994;2023-08-21T12:06:43;4.63;;;2.25;;
29906;SDS011;16776;50.958;10.994;2023-08-21T12:09:10;2.78;;;2.58;;
29906;SDS011;16776;50.958;10.994;2023-08-21T12:11:37;3.97;;;2.35;;
29906;SDS011;16776;50.958;10.994;2023-08-21T12:14:04;2.55;;;2.40;;
29906;SDS011;16776;50.958;10.994;2023-08-21T12:16:32;2.72;;;2.10;;
29906;SDS011;16776;50.958;10.994;2023-08-21T12:18:58;2.45;;;2.25;;
29906;SDS011;16776;50.958;10.994;2023-08-21T12:21:26;2.70;;;2.50;;
29906;SDS011;16776;50.958;10.994;2023-08-21T12:23:53;3.55;;;2.58;;
29906;SDS011;16776;50.958;10.994;2023-08-21T12:26:19;2.70;;;2.50;;
29906;SDS011;16776;50.958;10.994;2023-08-21T12:28:46;2.55;;;2.35;;
29906;SDS011;16776;50.958;10.994;2023-08-21T12:31:13;2.33;;;2.13;;
29906;SDS011;16776;50.958;10.994;2023-08-21T12:33:41;1.85;;;1.75;;
29906;SDS011;16776;50.958;10.994;2023-08-21T12:36:08;2.20;;;2.00;;
29906;SDS011;16776;50.958;10.994;2023-08-21T12:38:34;2.20;;;2.00;;
29906;SDS011;16776;50.958;10.994;2023-08-21T12:41:01;2.53;;;2.33;;
29906;SDS011;16776;50.958;10.994;2023-08-21T12:43:28;2.20;;;2.00;;
29906;SDS011;16776;50.958;10.994;2023-08-21T12:45:55;2.25;;;2.15;;
29906;SDS011;16776;50.958;10.994;2023-08-21T12:48:21;2.58;;;2.30;;
29906;SDS011;16776;50.958;10.994;2023-08-21T12:50:49;2.15;;;1.92;;
29906;SDS011;16776;50.958;10.994;2023-08-21T12:53:16;3.50;;;2.22;;
29906;SDS011;16776;50.958;10.994;2023-08-21T12:55:42;2.00;;;1.90;;
29906;SDS011;16776;50.958;10.994;2023-08-21T12:58:09;2.00;;;1.90;;
29906;SDS011;16776;50.958;10.994;2023-08-21T13:00:38;2.47;;;2.28;;
29906;SDS011;16776;50.958;10.994;2023-08-21T13:03:05;2.45;;;2.25;;
29906;SDS011;16776;50.958;10.994;2023-08-21T13:05:33;2.03;;;1.92;;
29906;SDS011;16776;50.958;10.994;2023-08-21T13:08:01;2.50;;;2.30;;
29906;SDS011;16776;50.958;10.994;2023-08-21T13:10:28;2.33;;;2.17;;
29906;SDS011;16776;50.958;10.994;2023-08-21T13:12:54;2.33;;;2.15;;
29906;SDS011;16776;50.958;10.994;2023-08-21T13:15:21;1.95;;;1.85;;
29906;SDS011;16776;50.958;10.994;2023-08-21T13:17:48;1.88;;;1.77;;
29906;SDS011;16776;50.958;10.994;2023-08-21T13:20:14;2.33;;;2.13;;
29906;SDS011;16776;50.958;10.994;2023-08-21T13:22:44;1.75;;;1.55;;
29906;SDS011;16776;50.958;10.994;2023-08-21T13:25:13;2.00;;;1.90;;
29906;SDS011;16776;50.958;10.994;2023-08-21T13:27:40;2.28;;;2.08;;
29906;SDS011;16776;50.958;10.994;2023-08-21T13:30:07;2.03;;;1.83;;
29906;SDS011;16776;50.958;10.994;2023-08-21T13:32:34;2.20;;;2.10;;
29906;SDS011;16776;50.958;10.994;2023-08-21T13:35:01;2.45;;;2.25;;
29906;SDS011;16776;50.958;10.994;2023-08-21T13:37:29;1.92;;;1.83;;
29906;SDS011;16776;50.958;10.994;2023-08-21T13:39:56;2.03;;;1.92;;
29906;SDS011;16776;50.958;10.994;2023-08-21T13:42:26;2.50;;;2.30;;
29906;SDS011;16776;50.958;10.994;2023-08-21T13:44:55;2.85;;;2.10;;
29906;SDS011;16776;50.958;10.994;2023-08-21T13:47:25;2.33;;;1.95;;
29906;SDS011;16776;50.958;10.994;2023-08-21T13:49:51;2.30;;;2.20;;
29906;SDS011;16776;50.958;10.994;2023-08-21T13:52:18;1.52;;;1.42;;
29906;SDS011;16776;50.958;10.994;2023-08-21T13:54:44;4.28;;;1.73;;
29906;SDS011;16776;50.958;10.994;2023-08-21T13:57:11;2.33;;;2.13;;
29906;SDS011;16776;50.958;10.994;2023-08-21T13:59:39;2.30;;;1.83;;
29906;SDS011;16776;50.958;10.994;2023-08-21T14:02:06;2.00;;;1.90;;
29906;SDS011;16776;50.958;10.994;2023-08-21T14:04:32;1.60;;;1.50;;
29906;SDS011;16776;50.958;10.994;2023-08-21T14:06:59;1.60;;;1.50;;
29906;SDS011;16776;50.958;10.994;2023-08-21T14:09:25;1.90;;;1.80;;
29906;SDS011;16776;50.958;10.994;2023-08-21T14:11:52;1.90;;;1.80;;
29906;SDS011;16776;50.958;10.994;2023-08-21T14:14:18;1.85;;;1.45;;
29906;SDS011;16776;50.958;10.994;2023-08-21T14:16:46;1.30;;;1.30;;
29906;SDS011;16776;50.958;10.994;2023-08-21T14:19:13;1.83;;;1.73;;
29906;SDS011;16776;50.958;10.994;2023-08-21T14:21:40;1.65;;;1.55;;
29906;SDS011;16776;50.958;10.994;2023-08-21T14:24:06;1.95;;;1.80;;
29906;SDS011;16776;50.958;10.994;2023-08-21T14:26:33;2.00;;;1.60;;
29906;SDS011;16776;50.958;10.994;2023-08-21T14:29:00;1.90;;;1.80;;
29906;SDS011;16776;50.958;10.994;2023-08-21T14:31:27;1.98;;;1.80;;
29906;SDS011;16776;50.958;10.994;2023-08-21T14:33:55;1.50;;;1.40;;
29906;SDS011;16776;50.958;10.994;2023-08-21T14:36:22;1.90;;;1.80;;